Time;durP1;ratioP1;P1;durP2;ratioP2;P2;SDS_P1;SDS_P2;PMS_P1;PMS_P2;Temp;Humidity;BMP_temperature;BMP_pressure;BME280_temperature;BME280_humidity;BME280_pressure;Samples;Min_cycle;Max_cycle;Signal;HPM_P1;HPM_P2
2023/01/05 00:01:01;;;;;;;14.52;4.05;;;10.80;86.70;;;10.61;72.40;100336.25;5048755;28;20431;-70
2023/01/05 00:03:29;;;;;;;14.63;3.90;;;10.80;87.00;;;10.51;72.16;100348.31;5048467;28;20889;-70
2023/01/05 00:06:00;;;;;;;16.55;4.45;;;10.80;86.60;;;10.59;71.59;100327.56;5048169;28;20398;-70
2023/01/05 00:08:30;;;;;;;14.48;4.65;;;10.80;86.20;;;10.56;71.34;100335.66;5048522;28;20884;-70
2023/01/05 00:22:33;;;;;;;15.23;4.50;;;10.70;86.50;;;10.45;72.65;100343.38;5048506;28;20409;-69
2023/01/05 00:25:05;;;;;;;19.40;4.78;;;10.70;87.10;;;10.36;73.63;100347.41;5048490;28;20413;-70
2023/01/05 00:27:39;;;;;;;17.42;4.43;;;10.60;87.80;;;10.28;74.58;100352.28;5048699;28;20420;-70
2023/01/05 00:30:08;;;;;;;17.08;4.53;;;10.50;88.80;;;10.35;74.52;100332.50;5049005;28;20401;-70
2023/01/05 00:32:36;;;;;;;17.60;4.85;;;10.50;89.50;;;10.26;74.46;100340.97;5048347;28;20944;-69
2023/01/05 00:35:05;;;;;;;20.48;5.22;;;10.50;89.70;;;10.21;75.00;100335.94;5048379;28;20904;-69
2023/01/05 00:37:35;;;;;;;19.15;4.90;;;10.50;89.50;;;10.21;74.71;100340.38;5048555;28;20390;-70
2023/01/05 00:40:05;;;;;;;17.20;4.67;;;10.50;89.60;;;10.22;74.89;100331.50;5047840;28;20899;-70
2023/01/05 00:42:34;;;;;;;21.33;5.13;;;10.50;89.60;;;10.23;74.42;100339.34;5048182;28;20405;-70
2023/01/05 00:45:02;;;;;;;18.75;4.93;;;10.50;89.40;;;10.21;75.04;100335.94;5048103;28;20412;-70
2023/01/05 00:47:30;;;;;;;17.80;5.18;;;10.50;89.60;;;10.21;75.84;100337.72;5047749;28;20405;-70
2023/01/05 00:49:58;;;;;;;19.92;5.00;;;10.50;90.10;;;10.13;76.26;100351.34;5048012;28;20410;-70
2023/01/05 00:52:26;;;;;;;20.50;5.15;;;10.50;90.30;;;10.08;76.02;100356.06;5047725;28;20405;-70
2023/01/05 00:54:54;;;;;;;18.25;4.60;;;10.40;90.40;;;10.13;75.69;100346.06;5047738;28;20413;-70
2023/01/05 00:57:23;;;;;;;16.38;5.03;;;10.40;90.50;;;10.15;75.67;100348.63;5047769;28;20401;-69
2023/01/05 00:59:52;;;;;;;19.13;5.23;;;10.40;90.30;;;10.10;75.47;100346.25;5047720;28;20917;-70
2023/01/05 01:02:20;;;;;;;18.08;4.47;;;10.40;90.20;;;10.21;74.95;100345.66;5048072;28;20408;-69
2023/01/05 01:04:48;;;;;;;19.93;5.20;;;10.40;89.90;;;10.16;74.33;100364.38;5047981;28;20926;-70
2023/01/05 01:07:16;;;;;;;16.55;4.40;;;10.40;89.30;;;10.18;74.60;100367.78;5047665;28;20424;-70
2023/01/05 01:09:44;;;;;;;17.23;4.70;;;10.50;89.30;;;10.14;74.71;100366.25;5047867;28;20397;-70
2023/01/05 01:12:12;;;;;;;16.27;4.38;;;10.40;89.30;;;10.20;73.82;100371.22;5047888;28;20410;-70
2023/01/05 01:14:42;;;;;;;18.57;4.77;;;10.40;88.80;;;10.26;73.04;100368.22;5047924;28;20405;-70
2023/01/05 01:17:10;;;;;;;17.10;4.88;;;10.50;88.00;;;10.21;73.50;100372.91;5049941;28;20483;-70
2023/01/05 01:19:38;;;;;;;16.35;4.95;;;10.50;87.90;;;10.29;73.08;100365.41;5051830;28;20820;-70
2023/01/05 01:22:06;;;;;;;18.67;5.17;;;10.50;87.80;;;10.27;72.80;100367.28;5051841;28;20493;-69
2023/01/05 01:24:34;;;;;;;17.70;4.57;;;10.50;87.40;;;10.27;72.67;100372.56;5051917;28;20421;-69
2023/01/05 01:27:03;;;;;;;16.17;4.80;;;10.50;87.60;;;10.25;72.81;100377.09;5051427;28;20779;-69
2023/01/05 01:29:31;;;;;;;15.73;4.73;;;10.50;87.50;;;10.18;73.33;100385.44;5051628;28;20413;-70
2023/01/05 01:32:00;;;;;;;18.23;4.28;;;10.50;87.80;;;10.24;72.33;100382.47;5051766;28;20419;-70
2023/01/05 01:34:29;;;;;;;19.63;5.07;;;10.50;87.40;;;10.21;73.00;100378.19;5051501;28;20413;-70
2023/01/05 01:36:57;;;;;;;18.13;4.45;;;10.50;87.50;;;10.22;72.82;100377.25;5050974;28;20401;-70
2023/01/05 01:39:25;;;;;;;16.05;4.60;;;10.50;88.20;;;10.21;72.78;100388.78;5051188;28;20939;-70
2023/01/05 01:41:53;;;;;;;18.13;4.57;;;10.50;87.30;;;10.27;72.73;100401.63;5051125;28;20416;-70
2023/01/05 01:44:52;;;;;;;15.52;4.45;;;10.50;87.50;;;10.24;72.99;100391.22;5051437;28;20440;-70
2023/01/05 01:47:33;;;;;;;17.10;4.75;;;10.50;87.50;;;10.22;72.62;100400.19;5050600;28;20934;-70
2023/01/05 01:50:03;;;;;;;19.52;5.07;;;10.50;88.60;;;10.10;73.52;100389.34;5051409;28;20415;-70
2023/01/05 01:52:31;;;;;;;19.87;5.10;;;10.40;87.80;;;10.12;72.96;100392.75;5051012;28;20419;-71
2023/01/05 01:54:59;;;;;;;22.50;5.22;;;10.40;87.60;;;10.11;73.27;100392.84;5050880;28;20409;-70
2023/01/05 01:57:27;;;;;;;18.05;5.10;;;10.40;87.70;;;10.12;72.94;100390.13;5050756;28;20413;-71
2023/01/05 01:59:56;;;;;;;19.05;4.65;;;10.40;87.50;;;10.15;72.71;100388.25;5050946;28;20425;-70
2023/01/05 02:02:26;;;;;;;16.23;4.70;;;10.40;87.60;;;10.22;72.42;100395.75;5051090;28;20409;-70
2023/01/05 02:04:54;;;;;;;17.95;4.40;;;10.40;87.20;;;10.23;72.37;100388.69;5050941;28;20405;-70
2023/01/05 02:07:23;;;;;;;18.52;4.70;;;10.50;87.10;;;10.17;72.52;100397.78;5050580;28;20500;-69
2023/01/05 02:09:52;;;;;;;15.18;4.18;;;10.50;87.40;;;10.12;72.74;100398.03;5050350;28;20877;-68
2023/01/05 02:12:30;;;;;;;16.35;4.32;;;10.40;87.30;;;10.13;72.77;100399.75;5050724;28;20409;-70
2023/01/05 02:15:09;;;;;;;17.23;4.87;;;10.40;87.50;;;10.09;73.69;100395.56;5050614;28;20417;-70
2023/01/05 02:17:46;;;;;;;15.70;4.33;;;10.40;88.00;;;10.04;74.34;100402.91;5050372;28;20408;-70
2023/01/05 02:20:33;;;;;;;19.63;4.60;;;10.30;89.00;;;9.96;75.01;100399.00;5050531;28;20432;-70
2023/01/05 02:24:09;;;;;;;17.80;5.03;;;10.30;89.80;;;9.91;75.38;100407.19;5050728;28;20401;-70
2023/01/05 02:27:27;;;;;;;19.23;4.95;;;10.20;90.00;;;9.79;76.38;100402.56;5019166;28;20435;-70
2023/01/05 02:30:41;;;;;;;19.20;4.55;;;10.20;90.40;;;9.81;76.25;100405.97;5050536;28;20409;-70
2023/01/05 02:33:17;;;;;;;19.63;5.18;;;10.10;90.70;;;9.78;77.15;100409.63;5050445;28;20398;-70
2023/01/05 02:35:51;;;;;;;19.67;4.50;;;10.10;90.90;;;9.72;77.78;100406.50;5049942;28;20409;-69
2023/01/05 02:38:23;;;;;;;19.45;4.90;;;10.00;91.30;;;9.62;78.32;100406.16;5050484;28;20405;-69
2023/01/05 02:40:56;;;;;;;15.63;4.38;;;9.90;91.50;;;9.67;77.08;100412.03;5050404;28;20504;-69
2023/01/05 02:43:24;;;;;;;18.42;4.90;;;10.00;91.20;;;9.60;78.31;100408.03;5049957;28;20936;-70
2023/01/05 02:45:52;;;;;;;19.60;5.10;;;9.90;91.60;;;9.59;78.76;100403.69;5049963;28;20770;-70
2023/01/05 02:48:21;;;;;;;20.05;5.00;;;9.90;91.90;;;9.59;78.61;100400.19;5049675;28;20410;-70
2023/01/05 02:50:51;;;;;;;16.77;4.72;;;9.90;91.70;;;9.60;78.13;100394.81;5050112;28;20908;-70
2023/01/05 02:53:21;;;;;;;17.35;4.55;;;9.90;91.60;;;9.64;77.77;100404.28;5050064;28;20393;-70
2023/01/05 02:55:51;;;;;;;15.27;4.28;;;10.00;91.40;;;9.58;77.58;100401.97;5049264;28;20770;-70
2023/01/05 02:58:22;;;;;;;13.20;3.55;;;9.90;91.30;;;9.58;77.91;100404.63;5050014;28;20426;-69
2023/01/05 03:00:52;;;;;;;15.60;4.57;;;9.90;91.30;;;9.65;77.26;100410.41;5049632;28;20763;-70
2023/01/05 03:03:26;;;;;;;17.67;4.20;;;9.90;91.30;;;9.57;77.45;100412.63;5050101;28;20398;-70
2023/01/05 03:05:55;;;;;;;13.10;3.95;;;9.90;91.30;;;9.62;77.88;100408.78;5049773;28;20401;-69
2023/01/05 03:08:24;;;;;;;14.73;4.05;;;9.90;91.30;;;9.67;77.41;100413.81;5049800;28;20410;-70
2023/01/05 03:13:50;;;;;;;16.33;4.22;;;9.90;91.40;;;9.53;77.70;100424.28;5050089;28;20417;-70
2023/01/05 03:16:22;;;;;;;16.63;4.25;;;9.90;91.40;;;9.52;77.92;100425.22;5049959;28;20793;-70
2023/01/05 03:35:33;;;;;;;15.27;3.88;;;9.90;91.10;;;9.63;76.72;100436.03;5048984;28;20735;-70
2023/01/05 03:38:07;;;;;;;15.65;4.35;;;9.90;91.00;;;9.58;76.81;100436.28;5048386;28;20405;-69
2023/01/05 03:40:42;;;;;;;17.13;5.60;;;9.90;91.00;;;9.66;76.48;100426.16;5048514;28;20790;-70
2023/01/05 03:43:10;;;;;;;13.35;3.95;;;9.90;90.80;;;9.63;76.47;100434.25;5048734;28;20397;-70
2023/01/05 03:45:41;;;;;;;16.70;4.80;;;9.90;90.80;;;9.52;76.63;100441.88;5048964;28;20394;-70
2023/01/05 03:48:09;;;;;;;16.05;4.32;;;9.90;90.80;;;9.52;76.65;100439.25;5048942;28;20397;-70
2023/01/05 03:50:38;;;;;;;17.40;4.20;;;9.90;90.80;;;9.63;75.78;100443.94;5049046;28;20412;-71
2023/01/05 03:53:07;;;;;;;17.42;4.47;;;9.90;90.60;;;9.55;76.14;100436.44;5049059;28;20424;-71
2023/01/05 03:55:35;;;;;;;17.40;5.05;;;9.90;90.70;;;9.56;76.21;100434.66;5048543;28;20865;-70
2023/01/05 03:58:03;;;;;;;17.60;4.67;;;9.80;90.60;;;9.55;76.12;100449.63;5049060;28;20512;-71
2023/01/05 04:00:31;;;;;;;17.05;4.70;;;9.90;90.60;;;9.65;75.87;100461.41;5048668;28;20425;-70
2023/01/05 04:02:59;;;;;;;18.70;4.50;;;9.90;90.50;;;9.52;76.67;100456.88;5048798;28;20412;-70
2023/01/05 04:05:28;;;;;;;22.88;4.88;;;9.90;90.70;;;9.52;77.08;100459.50;5048618;28;20816;-71
2023/01/05 04:07:57;;;;;;;19.15;4.97;;;9.80;91.00;;;9.48;77.25;100461.47;5048571;28;20766;-70
2023/01/05 04:10:25;;;;;;;20.38;4.90;;;9.80;91.10;;;9.42;77.69;100456.50;5048274;28;20405;-70
2023/01/05 04:12:53;;;;;;;19.92;5.32;;;9.80;91.40;;;9.42;77.87;100462.63;5048542;28;20410;-70
2023/01/05 04:15:21;;;;;;;17.17;5.10;;;9.70;91.50;;;9.40;77.91;100477.69;5049045;28;20416;-71
2023/01/05 04:17:49;;;;;;;21.07;5.17;;;9.70;91.40;;;9.48;77.46;100479.94;5048381;28;20751;-71
2023/01/05 04:20:17;;;;;;;19.17;5.13;;;9.80;91.30;;;9.42;77.93;100467.06;5048749;28;20901;-71
2023/01/05 04:22:45;;;;;;;22.42;5.35;;;9.80;91.40;;;9.39;78.15;100469.88;5048712;28;20413;-71
2023/01/05 04:25:15;;;;;;;20.27;5.72;;;9.80;91.60;;;9.36;78.34;100475.28;5048539;28;20406;-70
2023/01/05 04:27:43;;;;;;;23.07;5.67;;;9.70;91.70;;;9.36;78.50;100473.50;5048476;28;20467;-71
2023/01/05 04:30:12;;;;;;;23.42;5.60;;;9.70;91.70;;;9.44;78.20;100470.47;5048719;28;20424;-70
2023/01/05 04:32:40;;;;;;;24.07;5.63;;;9.70;91.70;;;9.38;77.99;100487.47;5048993;28;20453;-70
2023/01/05 04:35:09;;;;;;;22.40;5.78;;;9.70;91.70;;;9.32;78.69;100485.13;5048488;28;20405;-70
2023/01/05 04:37:38;;;;;;;23.08;5.13;;;9.60;91.80;;;9.27;79.34;100502.13;5048075;28;20909;-70
2023/01/05 04:40:08;;;;;;;21.67;5.60;;;9.60;92.10;;;9.22;79.44;100498.88;5048444;28;20405;-70
2023/01/05 04:42:37;;;;;;;20.70;5.75;;;9.60;92.30;;;9.23;79.73;100492.69;5048138;28;20777;-70
2023/01/05 04:45:07;;;;;;;24.08;5.30;;;9.60;92.30;;;9.24;79.24;100495.22;5048224;28;20873;-70
2023/01/05 04:47:35;;;;;;;21.52;5.30;;;9.50;92.10;;;9.24;78.67;100512.84;5047979;28;20798;-71
2023/01/05 04:50:03;;;;;;;21.73;5.70;;;9.50;92.00;;;9.43;78.31;100498.63;5047932;28;20935;-71
2023/01/05 04:52:31;;;;;;;24.40;5.68;;;9.60;91.90;;;9.28;78.72;100503.84;5047697;28;20885;-70
2023/01/05 04:54:59;;;;;;;20.03;5.10;;;9.60;91.80;;;9.27;78.33;100510.03;5048018;28;20413;-71
2023/01/05 04:57:27;;;;;;;21.67;5.25;;;9.60;91.70;;;9.26;78.43;100503.91;5047714;28;21029;-70
2023/01/05 04:59:57;;;;;;;19.90;5.10;;;9.60;91.70;;;9.27;78.33;100507.41;5047934;28;20412;-71
2023/01/05 05:02:25;;;;;;;19.85;5.05;;;9.60;91.80;;;9.27;78.23;100510.91;5047977;28;20444;-71
2023/01/05 05:04:53;;;;;;;18.23;4.97;;;9.60;91.70;;;9.27;78.52;100504.78;5047718;28;20412;-70
2023/01/05 05:07:21;;;;;;;22.15;5.15;;;9.50;91.80;;;9.31;77.75;100506.31;5047822;28;20397;-71
2023/01/05 05:09:49;;;;;;;21.00;5.00;;;9.60;92.10;;;9.23;77.68;100508.50;5047673;28;20406;-71
2023/01/05 05:12:19;;;;;;;19.90;4.70;;;9.50;91.60;;;9.20;78.05;100508.66;5051458;28;20401;-71
2023/01/05 05:14:47;;;;;;;19.08;4.93;;;9.50;91.60;;;9.31;77.82;100512.44;5049684;28;20417;-71
2023/01/05 05:17:17;;;;;;;15.82;4.47;;;9.60;91.50;;;9.22;77.64;100520.84;5047610;28;20451;-72
2023/01/05 05:19:45;;;;;;;16.98;4.75;;;9.60;91.40;;;9.27;77.66;100528.50;5048058;28;20406;-71
2023/01/05 05:22:13;;;;;;;18.25;4.93;;;9.60;91.40;;;9.24;77.46;100537.44;5047587;28;20932;-71
2023/01/05 05:24:41;;;;;;;16.03;4.10;;;9.60;91.40;;;9.22;77.92;100534.03;5047932;28;20487;-71
2023/01/05 05:27:09;;;;;;;16.00;4.78;;;9.60;91.50;;;9.22;77.92;100541.94;5048055;28;20408;-71
2023/01/05 05:29:37;;;;;;;16.83;4.68;;;9.60;91.50;;;9.19;77.98;100536.81;5047760;28;20409;-71
2023/01/05 05:32:05;;;;;;;16.90;4.67;;;9.50;91.50;;;9.20;77.47;100546.44;5048027;28;20454;-71
2023/01/05 05:34:35;;;;;;;17.67;4.68;;;9.50;91.50;;;9.22;77.39;100535.81;5047918;28;20409;-71
2023/01/05 05:37:03;;;;;;;16.63;5.05;;;9.60;91.30;;;9.27;77.24;100542.53;5047586;28;20401;-71
2023/01/05 05:39:31;;;;;;;17.30;5.30;;;9.60;91.20;;;9.31;76.97;100541.47;5047769;28;20413;-71
2023/01/05 05:41:59;;;;;;;15.85;4.57;;;9.60;91.10;;;9.35;76.73;100552.69;5047552;28;20417;-71
2023/01/05 05:44:27;;;;;;;14.67;4.43;;;9.60;91.10;;;9.35;76.96;100550.06;5047374;28;20426;-71
2023/01/05 05:46:56;;;;;;;19.02;4.60;;;9.70;91.20;;;9.25;77.63;100546.19;5047552;28;20412;-69
2023/01/05 05:49:24;;;;;;;16.73;4.47;;;9.60;91.30;;;9.26;77.44;100547.91;5047544;28;20440;-69
2023/01/05 05:51:53;;;;;;;16.77;4.53;;;9.60;91.40;;;9.31;76.89;100546.72;5047398;28;20895;-71
2023/01/05 05:54:21;;;;;;;17.15;4.70;;;9.60;91.20;;;9.31;76.89;100553.78;5047127;28;20812;-71
2023/01/05 05:56:49;;;;;;;17.35;4.15;;;9.60;91.00;;;9.31;76.87;100553.78;5046956;28;20405;-71
2023/01/05 05:59:17;;;;;;;19.25;4.82;;;9.60;91.00;;;9.27;76.71;100553.09;5047528;28;20406;-71
2023/01/05 06:01:45;;;;;;;16.15;4.65;;;9.60;91.00;;;9.29;76.41;100550.38;5047660;28;20426;-71
2023/01/05 06:04:13;;;;;;;16.90;4.70;;;9.60;90.80;;;9.24;76.39;100553.25;5051321;28;20401;-71
2023/01/05 06:06:42;;;;;;;17.58;4.82;;;9.60;90.80;;;9.28;76.30;100559.22;5050969;28;20408;-70
2023/01/05 06:09:11;;;;;;;16.95;4.43;;;9.60;90.70;;;9.31;76.22;100564.34;5050597;28;20413;-70
2023/01/05 06:11:39;;;;;;;22.52;5.47;;;9.60;90.60;;;9.24;76.67;100561.16;5051663;28;20397;-70
2023/01/05 06:14:07;;;;;;;22.13;5.07;;;9.60;90.80;;;9.26;76.38;100566.38;5052018;28;20424;-70
2023/01/05 06:16:35;;;;;;;16.63;4.70;;;9.60;90.70;;;9.43;75.47;100574.28;5051375;28;20886;-71
2023/01/05 06:19:03;;;;;;;17.65;4.55;;;9.60;90.60;;;9.30;76.06;100571.41;5051547;28;20484;-70
2023/01/05 06:21:31;;;;;;;15.40;4.60;;;9.60;90.60;;;9.25;76.57;100575.22;5050584;28;20424;-70
2023/01/05 06:24:00;;;;;;;14.40;4.10;;;9.50;90.70;;;9.30;75.81;100583.75;5050780;28;20406;-70
2023/01/05 06:26:29;;;;;;;13.87;4.30;;;9.60;90.70;;;9.24;76.74;100579.63;5050439;28;20462;-70
2023/01/05 06:28:57;;;;;;;13.68;4.30;;;9.60;90.80;;;9.25;76.80;100583.13;5050546;28;20412;-71
2023/01/05 06:31:25;;;;;;;14.13;4.15;;;9.60;90.90;;;9.17;77.22;100587.00;5050516;28;20409;-70
2023/01/05 06:33:53;;;;;;;12.73;4.05;;;9.50;91.00;;;9.16;77.26;100598.47;5050338;28;20401;-70
2023/01/05 06:36:22;;;;;;;15.45;4.15;;;9.50;91.20;;;9.14;77.63;100597.69;5050001;28;21772;-70
2023/01/05 06:38:50;;;;;;;11.45;3.95;;;9.50;91.40;;;9.10;78.22;100608.47;5050450;28;20890;-70
2023/01/05 06:41:18;;;;;;;10.23;3.47;;;9.50;91.70;;;9.16;78.48;100618.72;5050632;28;20408;-71
2023/01/05 06:43:47;;;;;;;11.93;4.00;;;9.40;91.90;;;9.05;79.14;100619.25;5050461;28;20409;-60
2023/01/05 06:46:15;;;;;;;11.35;4.18;;;9.40;92.10;;;9.10;78.98;100625.16;5049759;28;20877;-69
2023/01/05 06:48:43;;;;;;;12.18;4.80;;;9.40;92.30;;;8.94;80.32;100632.13;5050615;28;20856;-69
2023/01/05 06:51:11;;;;;;;16.27;5.32;;;9.30;92.60;;;8.98;79.96;100625.75;5050564;28;20401;-67
2023/01/05 06:53:39;;;;;;;17.47;5.80;;;9.20;92.70;;;8.97;79.68;100621.41;5050333;28;20495;-67
2023/01/05 06:56:08;;;;;;;17.15;5.82;;;9.30;92.50;;;8.93;79.92;100630.41;5049609;28;20412;-68
2023/01/05 06:58:36;;;;;;;16.48;5.70;;;9.30;92.50;;;9.00;79.05;100633.59;5050141;28;20407;-67
2023/01/05 07:01:05;;;;;;;19.05;5.70;;;9.30;92.40;;;8.95;79.57;100636.47;5049762;28;20412;-68
2023/01/05 07:03:33;;;;;;;16.97;5.37;;;9.30;92.40;;;8.94;79.76;100634.75;5050024;28;20417;-69
2023/01/05 07:06:03;;;;;;;15.45;4.85;;;9.30;92.50;;;8.95;80.14;100649.63;5049539;28;20417;-68
2023/01/05 07:08:31;;;;;;;17.10;5.70;;;9.20;92.70;;;8.99;79.76;100664.38;5050173;28;20624;-68
2023/01/05 07:10:59;;;;;;;21.98;6.10;;;9.30;92.70;;;9.05;79.44;100644.75;5049231;28;20729;-67
2023/01/05 07:13:27;;;;;;;18.33;5.53;;;9.30;92.40;;;9.06;79.38;100652.59;5049900;28;20723;-68
2023/01/05 07:15:55;;;;;;;16.88;5.18;;;9.30;92.30;;;8.93;79.89;100669.94;5049804;28;20432;-69
2023/01/05 07:18:24;;;;;;;19.58;5.35;;;9.30;92.90;;;8.91;79.70;100665.69;5049915;28;20471;-69
2023/01/05 07:20:52;;;;;;;19.23;5.10;;;9.30;92.60;;;8.90;80.05;100679.78;5049997;28;20448;-68
2023/01/05 07:23:20;;;;;;;20.67;5.28;;;9.20;92.60;;;8.91;79.92;100682.34;5049674;28;20511;-68
2023/01/05 07:25:49;;;;;;;18.67;5.77;;;9.20;92.70;;;8.97;79.50;100679.41;5049582;28;20490;-68
2023/01/05 07:28:17;;;;;;;19.27;5.47;;;9.30;92.70;;;9.05;79.29;100687.81;5049835;28;20416;-68
2023/01/05 07:30:50;;;;;;;16.80;5.72;;;9.30;92.60;;;9.04;79.23;100683.47;5049771;28;20420;-68
2023/01/05 07:33:18;;;;;;;17.60;5.28;;;9.30;92.50;;;8.96;79.67;100690.03;5049872;28;20397;-68
2023/01/05 07:35:48;;;;;;;17.13;5.07;;;9.30;92.60;;;8.92;79.70;100693.75;5049147;28;20401;-68
2023/01/05 07:38:16;;;;;;;20.58;5.22;;;9.30;92.70;;;8.94;80.30;100699.81;5049569;28;20437;-67
2023/01/05 07:40:44;;;;;;;21.92;5.60;;;9.30;92.80;;;8.90;80.32;100700.88;5049419;28;20429;-67
2023/01/05 07:43:12;;;;;;;19.95;4.93;;;9.20;92.90;;;8.97;79.85;100700.50;5049207;28;20428;-67
2023/01/05 07:45:40;;;;;;;19.40;5.20;;;9.20;92.90;;;8.97;80.01;100711.06;5049281;28;20406;-67
2023/01/05 07:48:09;;;;;;;19.63;5.30;;;9.30;92.80;;;8.98;79.75;100710.13;5046640;28;20425;-68
2023/01/05 07:50:37;;;;;;;17.63;5.20;;;9.30;92.90;;;9.00;79.76;100717.97;5048223;28;20417;-67
2023/01/05 07:53:06;;;;;;;19.17;5.68;;;9.30;92.80;;;8.90;80.35;100716.69;5049014;28;20408;-68
2023/01/05 07:55:34;;;;;;;19.98;5.95;;;9.20;92.90;;;8.88;80.21;100722.03;5048626;28;20413;-68
2023/01/05 07:58:02;;;;;;;19.17;6.45;;;9.20;92.90;;;8.92;80.55;100720.97;5048739;28;20845;-69
2023/01/05 08:00:30;;;;;;;20.10;6.25;;;9.30;93.00;;;8.92;80.61;100733.28;5048791;28;20429;-68
2023/01/05 08:02:58;;;;;;;18.48;5.65;;;9.30;93.00;;;8.85;80.92;100732.72;5048371;28;20425;-68
2023/01/05 08:05:29;;;;;;;18.60;6.05;;;9.20;93.10;;;8.89;80.93;100731.66;5048871;28;20406;-67
2023/01/05 08:07:57;;;;;;;19.73;6.43;;;9.20;93.30;;;9.03;79.84;100745.03;5048151;28;20890;-67
2023/01/05 08:10:29;;;;;;;17.57;6.47;;;9.30;93.10;;;8.97;80.38;100741.84;5048189;28;20405;-71
2023/01/05 08:15:47;;;;;;;21.92;6.88;;;9.20;93.30;;;8.89;80.48;100758.00;5048444;28;20870;-71
2023/01/05 08:18:18;;;;;;;21.92;6.20;;;9.30;93.20;;;8.86;80.82;100758.16;5048551;28;20475;-70
2023/01/05 08:20:51;;;;;;;19.90;6.45;;;9.20;93.20;;;8.87;80.94;100759.88;5048732;28;20751;-71
2023/01/05 08:23:19;;;;;;;19.37;6.00;;;9.20;93.40;;;8.85;81.02;100759.94;5048103;28;20462;-71
2023/01/05 08:25:54;;;;;;;21.08;5.80;;;9.20;93.30;;;8.86;80.74;100763.44;5047521;28;20897;-70
2023/01/05 08:28:23;;;;;;;21.50;6.22;;;9.20;93.30;;;8.93;80.89;100769.25;5048549;28;20805;-71
2023/01/05 08:31:03;;;;;;;17.38;5.90;;;9.20;93.30;;;8.95;80.50;100770.91;5048593;28;20475;-71
2023/01/05 08:33:31;;;;;;;17.83;5.85;;;9.20;93.10;;;8.93;80.62;100770.13;5048110;28;20409;-71
2023/01/05 08:35:59;;;;;;;21.83;6.57;;;9.20;93.00;;;8.91;80.58;100771.13;5047864;28;20886;-71
2023/01/05 08:38:27;;;;;;;21.67;6.20;;;9.30;93.20;;;8.97;80.48;100771.69;5048334;28;20413;-71
2023/01/05 08:40:59;;;;;;;19.17;5.63;;;9.30;93.10;;;9.03;79.79;100774.03;5048016;28;20848;-71
2023/01/05 08:43:27;;;;;;;19.80;6.05;;;9.30;92.80;;;9.00;79.57;100779.44;5047888;28;20421;-71
2023/01/05 08:45:55;;;;;;;18.40;5.83;;;9.30;92.70;;;9.02;79.99;100774.97;5047958;28;20559;-71
2023/01/05 08:48:24;;;;;;;15.90;5.57;;;9.30;92.70;;;8.99;79.42;100793.56;5047950;28;20405;-71
2023/01/05 08:50:52;;;;;;;21.23;5.35;;;9.30;92.60;;;8.97;79.76;100795.41;5048151;28;20409;-71
2023/01/05 08:53:20;;;;;;;15.50;5.20;;;9.30;92.60;;;8.97;79.66;100794.56;5048121;28;20410;-71
2023/01/05 08:55:48;;;;;;;21.10;5.60;;;9.30;92.60;;;9.04;79.60;100796.84;5047682;28;20470;-71
2023/01/05 08:58:17;;;;;;;17.40;5.10;;;9.40;92.70;;;9.01;79.10;100812.81;5048036;28;20409;-71
2023/01/05 09:00:45;;;;;;;18.60;5.63;;;9.30;92.40;;;9.08;78.47;100801.03;5048126;28;20414;-71
2023/01/05 09:03:14;;;;;;;14.30;4.60;;;9.40;92.20;;;9.16;77.70;100824.41;5047941;28;20437;-70
2023/01/05 09:05:42;;;;;;;10.80;3.60;;;9.40;92.00;;;9.19;77.78;100816.34;5048184;28;20405;-70
2023/01/05 09:08:10;;;;;;;15.95;4.25;;;9.50;91.60;;;9.11;78.27;100827.28;5048055;28;20401;-71
2023/01/05 09:10:38;;;;;;;16.73;4.47;;;9.40;91.80;;;9.10;78.55;100832.63;5047601;28;20401;-70
2023/01/05 09:13:06;;;;;;;15.55;4.53;;;9.40;92.00;;;9.08;78.71;100827.41;5047961;28;20404;-70
2023/01/05 09:15:36;;;;;;;13.80;4.47;;;9.40;92.10;;;9.08;78.65;100832.69;5048311;28;20408;-70
2023/01/05 09:18:04;;;;;;;16.50;4.40;;;9.40;92.00;;;9.10;78.48;100849.28;5048130;28;21047;-71
2023/01/05 09:20:32;;;;;;;13.23;4.80;;;9.40;92.10;;;9.30;78.11;100847.50;5047919;28;20479;-71
2023/01/05 09:23:07;;;;;;;15.40;5.10;;;9.50;92.00;;;9.13;78.78;100843.88;5048349;28;20526;-71
2023/01/05 09:25:35;;;;;;;18.50;5.80;;;9.50;92.10;;;9.04;79.24;100854.84;5048449;28;20405;-71
2023/01/05 09:28:03;;;;;;;21.77;8.23;;;9.40;92.30;;;9.13;79.18;100856.22;5047440;28;20421;-71
2023/01/05 09:30:31;;;;;;;19.40;6.00;;;9.40;92.40;;;9.07;79.42;100865.25;5048133;28;20417;-71
2023/01/05 09:33:11;;;;;;;13.93;5.60;;;9.40;92.50;;;9.24;78.35;100869.75;5047659;28;20866;-71
2023/01/05 09:35:39;;;;;;;16.67;5.10;;;9.50;92.20;;;9.13;78.80;100870.25;5047648;28;20405;-70
2023/01/05 09:38:07;;;;;;;16.67;5.43;;;9.40;92.10;;;9.12;78.58;100880.88;5049802;28;20912;-71
2023/01/05 09:40:39;;;;;;;18.95;5.70;;;9.50;92.10;;;9.09;79.27;100888.91;5051177;28;20405;-71
2023/01/05 09:43:07;;;;;;;19.50;5.25;;;9.40;92.30;;;9.08;78.78;100889.84;5051810;28;20425;-70
2023/01/05 09:45:35;;;;;;;20.10;5.15;;;9.40;92.40;;;9.13;78.77;100898.41;5051410;28;20412;-71
2023/01/05 09:48:03;;;;;;;18.00;5.30;;;9.40;92.20;;;9.22;78.58;100902.41;5051507;28;20646;-71
2023/01/05 09:50:33;;;;;;;19.88;5.03;;;9.50;92.40;;;9.20;78.29;100899.84;5051434;28;20416;-71
2023/01/05 09:53:01;;;;;;;16.70;5.38;;;9.50;92.10;;;9.20;77.98;100904.25;5050906;28;20400;-69
2023/01/05 09:55:30;;;;;;;19.30;5.13;;;9.50;91.90;;;9.20;78.63;100910.38;5051340;28;20405;-71
2023/01/05 09:58:00;;;;;;;20.10;5.55;;;9.50;92.20;;;9.21;77.86;100922.66;5051424;28;20405;-71
2023/01/05 10:00:29;;;;;;;18.00;5.20;;;9.50;91.80;;;9.23;77.71;100919.94;5050915;28;20766;-71
2023/01/05 10:02:59;;;;;;;15.50;4.80;;;9.60;91.70;;;9.29;77.24;100914.38;5051053;28;20423;-71
2023/01/05 10:05:27;;;;;;;14.07;4.00;;;9.60;91.50;;;9.34;76.86;100915.03;5050701;28;20458;-71
2023/01/05 10:08:00;;;;;;;16.95;4.32;;;9.60;91.20;;;9.45;75.79;100918.91;5050972;28;20516;-71
2023/01/05 10:10:42;;;;;;;13.70;4.13;;;9.70;90.90;;;9.37;76.03;100922.81;5050561;28;20412;-71
2023/01/05 10:13:18;;;;;;;15.07;3.85;;;9.70;90.70;;;9.46;75.13;100933.81;5051237;28;20409;-70
2023/01/05 10:15:48;;;;;;;14.50;4.00;;;9.80;90.50;;;9.43;75.94;100938.38;5050889;28;20758;-71
2023/01/05 10:18:19;;;;;;;12.87;4.17;;;9.70;90.70;;;9.33;76.08;100937.91;5050747;28;20397;-71
2023/01/05 10:20:57;;;;;;;12.25;3.90;;;9.70;90.80;;;9.36;76.42;100940.41;5051584;28;20409;-71
2023/01/05 10:23:39;;;;;;;13.55;4.20;;;9.60;91.00;;;9.35;77.06;100948.41;5050568;28;20944;-71
2023/01/05 10:26:12;;;;;;;13.93;4.30;;;9.70;91.20;;;9.36;76.75;100943.03;5050577;28;20735;-71
2023/01/05 10:28:42;;;;;;;13.77;4.43;;;9.70;91.20;;;9.45;76.76;100947.06;5051025;28;20409;-71
2023/01/05 10:31:17;;;;;;;13.95;4.40;;;9.70;91.30;;;9.47;77.35;100959.28;5050669;28;20436;-71
2023/01/05 10:33:51;;;;;;;13.98;4.40;;;9.70;91.50;;;9.42;76.61;100963.91;5050474;28;20401;-71
2023/01/05 10:36:48;;;;;;;12.25;3.92;;;9.70;91.10;;;9.39;76.83;100965.81;5050339;28;20485;-71
2023/01/05 10:40:07;;;;;;;11.93;3.90;;;9.70;91.20;;;9.39;77.31;100974.59;5049105;28;20492;-70
2023/01/05 10:42:45;;;;;;;12.85;3.53;;;9.70;91.40;;;9.35;78.00;100975.63;5050226;28;21055;-71
2023/01/05 10:45:14;;;;;;;11.85;3.50;;;9.70;92.10;;;9.33;78.88;100981.91;5050573;28;20432;-71
2023/01/05 10:47:43;;;;;;;17.77;4.50;;;9.60;92.00;;;9.28;79.37;100984.75;5049876;28;20405;-71
2023/01/05 10:50:35;;;;;;;8.98;3.15;;;9.60;92.50;;;9.25;79.16;100986.66;5050412;28;20409;-71
2023/01/05 10:53:09;;;;;;;6.60;2.20;;;9.50;92.50;;;9.21;78.24;100993.84;5050307;28;20401;-71
2023/01/05 10:55:45;;;;;;;6.47;2.20;;;9.50;91.90;;;9.34;75.42;100997.66;5049821;28;20413;-71
2023/01/05 10:58:24;;;;;;;5.70;1.60;;;9.50;91.10;;;8.91;76.21;101003.09;5050334;28;20405;-71
2023/01/05 11:00:54;;;;;;;5.05;1.80;;;9.30;90.60;;;8.88;76.16;100990.91;5049893;28;20903;-71
2023/01/05 11:03:37;;;;;;;4.95;1.55;;;9.20;90.80;;;8.92;76.10;101000.41;5050178;28;20408;-71